sensor_id;sensor_type;location;lat;lon;timestamp;temperature;humidity
66096;SHT31;53861;53.422;14.530;2022-08-19T00:01:35;20.99;94.15
66096;SHT31;53861;53.422;14.530;2022-08-19T00:04:05;20.91;93.94
66096;SHT31;53861;53.422;14.530;2022-08-19T00:06:33;20.94;94.45
66096;SHT31;53861;53.422;14.530;2022-08-19T00:09:02;20.87;95.13
66096;SHT31;53861;53.422;14.530;2022-08-19T00:11:29;20.80;94.92
66096;SHT31;53861;53.422;14.530;2022-08-19T00:13:57;20.73;95.04
66096;SHT31;53861;53.422;14.530;2022-08-19T00:16:25;20.76;95.26
66096;SHT31;53861;53.422;14.530;2022-08-19T00:18:54;20.80;95.21
66096;SHT31;53861;53.422;14.530;2022-08-19T00:21:22;20.79;95.24
66096;SHT31;53861;53.422;14.530;2022-08-19T00:24:04;20.81;95.36
66096;SHT31;53861;53.422;14.530;2022-08-19T00:26:45;20.84;95.37
66096;SHT31;53861;53.422;14.530;2022-08-19T00:29:15;20.93;95.63
66096;SHT31;53861;53.422;14.530;2022-08-19T00:31:43;20.91;95.86
66096;SHT31;53861;53.422;14.530;2022-08-19T00:34:12;20.93;95.22
66096;SHT31;53861;53.422;14.530;2022-08-19T00:36:41;20.87;94.45
66096;SHT31;53861;53.422;14.530;2022-08-19T00:39:09;20.94;95.37
66096;SHT31;53861;53.422;14.530;2022-08-19T00:41:37;20.93;95.40
66096;SHT31;53861;53.422;14.530;2022-08-19T00:44:07;20.90;95.43
66096;SHT31;53861;53.422;14.530;2022-08-19T00:46:37;20.84;95.63
66096;SHT31;53861;53.422;14.530;2022-08-19T00:49:09;20.93;95.47
66096;SHT31;53861;53.422;14.530;2022-08-19T00:51:42;20.97;95.63
66096;SHT31;53861;53.422;14.530;2022-08-19T00:54:11;20.99;95.07
66096;SHT31;53861;53.422;14.530;2022-08-19T00:56:38;20.99;95.06
66096;SHT31;53861;53.422;14.530;2022-08-19T00:59:06;21.01;95.13
66096;SHT31;53861;53.422;14.530;2022-08-19T01:01:35;21.00;95.30
66096;SHT31;53861;53.422;14.530;2022-08-19T01:04:02;20.96;95.48
66096;SHT31;53861;53.422;14.530;2022-08-19T01:06:31;20.96;95.00
66096;SHT31;53861;53.422;14.530;2022-08-19T01:08:59;20.97;95.03
66096;SHT31;53861;53.422;14.530;2022-08-19T01:11:27;21.00;95.53
66096;SHT31;53861;53.422;14.530;2022-08-19T01:13:55;20.96;95.47
66096;SHT31;53861;53.422;14.530;2022-08-19T01:16:25;20.94;95.42
66096;SHT31;53861;53.422;14.530;2022-08-19T01:18:53;20.94;95.75
66096;SHT31;53861;53.422;14.530;2022-08-19T01:21:28;20.94;95.72
66096;SHT31;53861;53.422;14.530;2022-08-19T01:23:59;20.94;95.95
66096;SHT31;53861;53.422;14.530;2022-08-19T01:26:26;20.96;95.97
66096;SHT31;53861;53.422;14.530;2022-08-19T01:28:56;20.97;95.83
66096;SHT31;53861;53.422;14.530;2022-08-19T01:31:27;21.00;96.22
66096;SHT31;53861;53.422;14.530;2022-08-19T01:33:57;21.03;96.08
66096;SHT31;53861;53.422;14.530;2022-08-19T01:36:27;21.04;96.26
66096;SHT31;53861;53.422;14.530;2022-08-19T01:38:54;21.07;95.95
66096;SHT31;53861;53.422;14.530;2022-08-19T01:41:23;21.07;95.95
66096;SHT31;53861;53.422;14.530;2022-08-19T01:43:51;21.07;96.16
66096;SHT31;53861;53.422;14.530;2022-08-19T01:46:19;21.08;96.28
66096;SHT31;53861;53.422;14.530;2022-08-19T01:48:46;21.15;96.05
66096;SHT31;53861;53.422;14.530;2022-08-19T01:51:14;21.21;95.89
66096;SHT31;53861;53.422;14.530;2022-08-19T01:53:42;21.27;95.62
66096;SHT31;53861;53.422;14.530;2022-08-19T01:56:09;21.35;95.16
66096;SHT31;53861;53.422;14.530;2022-08-19T01:58:41;21.32;95.39
66096;SHT31;53861;53.422;14.530;2022-08-19T02:01:12;21.37;95.07
66096;SHT31;53861;53.422;14.530;2022-08-19T02:03:39;21.38;95.17
66096;SHT31;53861;53.422;14.530;2022-08-19T02:06:07;21.35;94.93
66096;SHT31;53861;53.422;14.530;2022-08-19T02:08:36;21.38;94.99
66096;SHT31;53861;53.422;14.530;2022-08-19T02:11:05;21.41;94.54
66096;SHT31;53861;53.422;14.530;2022-08-19T02:13:33;21.41;94.24
66096;SHT31;53861;53.422;14.530;2022-08-19T02:16:02;21.45;93.54
66096;SHT31;53861;53.422;14.530;2022-08-19T02:18:30;21.42;93.63
66096;SHT31;53861;53.422;14.530;2022-08-19T02:20:57;21.40;94.05
66096;SHT31;53861;53.422;14.530;2022-08-19T02:23:24;21.35;93.91
66096;SHT31;53861;53.422;14.530;2022-08-19T02:25:52;21.44;93.51
66096;SHT31;53861;53.422;14.530;2022-08-19T02:28:19;21.45;92.04
66096;SHT31;53861;53.422;14.530;2022-08-19T02:30:47;21.50;91.87
66096;SHT31;53861;53.422;14.530;2022-08-19T02:33:16;21.51;92.19
66096;SHT31;53861;53.422;14.530;2022-08-19T02:35:44;21.42;91.50
66096;SHT31;53861;53.422;14.530;2022-08-19T02:38:13;21.40;92.37
66096;SHT31;53861;53.422;14.530;2022-08-19T02:40:56;21.30;92.76
66096;SHT31;53861;53.422;14.530;2022-08-19T02:43:24;21.30;92.51
66096;SHT31;53861;53.422;14.530;2022-08-19T02:45:51;21.35;91.78
66096;SHT31;53861;53.422;14.530;2022-08-19T02:48:22;21.35;92.06
66096;SHT31;53861;53.422;14.530;2022-08-19T02:50:51;21.28;92.53
66096;SHT31;53861;53.422;14.530;2022-08-19T02:53:22;21.21;92.46
66096;SHT31;53861;53.422;14.530;2022-08-19T02:55:50;21.24;92.64
66096;SHT31;53861;53.422;14.530;2022-08-19T02:58:18;21.23;91.19
66096;SHT31;53861;53.422;14.530;2022-08-19T03:00:49;21.23;92.62
66096;SHT31;53861;53.422;14.530;2022-08-19T03:03:17;21.20;90.42
66096;SHT31;53861;53.422;14.530;2022-08-19T03:05:47;21.17;90.45
66096;SHT31;53861;53.422;14.530;2022-08-19T03:08:15;21.08;90.90
66096;SHT31;53861;53.422;14.530;2022-08-19T03:10:44;21.11;91.89
66096;SHT31;53861;53.422;14.530;2022-08-19T03:13:13;21.01;91.52
66096;SHT31;53861;53.422;14.530;2022-08-19T03:15:42;21.04;90.13
66096;SHT31;53861;53.422;14.530;2022-08-19T03:18:09;21.03;91.52
66096;SHT31;53861;53.422;14.530;2022-08-19T03:20:41;21.00;91.35
66096;SHT31;53861;53.422;14.530;2022-08-19T03:23:10;21.06;92.74
66096;SHT31;53861;53.422;14.530;2022-08-19T03:25:39;21.01;91.26
66096;SHT31;53861;53.422;14.530;2022-08-19T03:28:07;21.07;91.65
66096;SHT31;53861;53.422;14.530;2022-08-19T03:30:34;21.08;92.72
66096;SHT31;53861;53.422;14.530;2022-08-19T03:33:02;21.10;90.99
66096;SHT31;53861;53.422;14.530;2022-08-19T03:35:29;21.07;92.13
66096;SHT31;53861;53.422;14.530;2022-08-19T03:37:58;20.99;93.34
66096;SHT31;53861;53.422;14.530;2022-08-19T03:40:26;20.91;93.94
66096;SHT31;53861;53.422;14.530;2022-08-19T03:42:55;20.91;93.77
66096;SHT31;53861;53.422;14.530;2022-08-19T03:45:23;20.97;92.75
66096;SHT31;53861;53.422;14.530;2022-08-19T03:47:50;21.01;93.22
66096;SHT31;53861;53.422;14.530;2022-08-19T03:50:17;20.94;92.85
66096;SHT31;53861;53.422;14.530;2022-08-19T03:52:48;21.01;92.61
66096;SHT31;53861;53.422;14.530;2022-08-19T03:55:16;21.06;92.92
66096;SHT31;53861;53.422;14.530;2022-08-19T03:57:45;21.00;93.75
66096;SHT31;53861;53.422;14.530;2022-08-19T04:00:14;21.06;93.01
66096;SHT31;53861;53.422;14.530;2022-08-19T04:02:41;20.96;93.64
66096;SHT31;53861;53.422;14.530;2022-08-19T04:05:09;21.08;93.08
66096;SHT31;53861;53.422;14.530;2022-08-19T04:07:36;21.04;94.05
66096;SHT31;53861;53.422;14.530;2022-08-19T04:10:04;21.06;94.20
66096;SHT31;53861;53.422;14.530;2022-08-19T04:12:31;21.03;94.31
66096;SHT31;53861;53.422;14.530;2022-08-19T04:15:00;21.03;94.84
66096;SHT31;53861;53.422;14.530;2022-08-19T04:17:27;20.96;94.00
66096;SHT31;53861;53.422;14.530;2022-08-19T04:19:55;20.90;93.57
66096;SHT31;53861;53.422;14.530;2022-08-19T04:22:22;20.94;93.56
66096;SHT31;53861;53.422;14.530;2022-08-19T04:24:49;20.99;93.76
66096;SHT31;53861;53.422;14.530;2022-08-19T04:27:16;21.00;94.43
66096;SHT31;53861;53.422;14.530;2022-08-19T04:29:44;20.87;93.87
66096;SHT31;53861;53.422;14.530;2022-08-19T04:32:12;20.89;93.57
66096;SHT31;53861;53.422;14.530;2022-08-19T04:34:41;20.80;93.86
66096;SHT31;53861;53.422;14.530;2022-08-19T04:37:08;20.90;93.55
66096;SHT31;53861;53.422;14.530;2022-08-19T04:39:38;20.91;95.29
66096;SHT31;53861;53.422;14.530;2022-08-19T04:42:22;20.86;95.19
66096;SHT31;53861;53.422;14.530;2022-08-19T04:45:06;20.80;94.24
66096;SHT31;53861;53.422;14.530;2022-08-19T04:47:37;20.93;93.67
66096;SHT31;53861;53.422;14.530;2022-08-19T04:50:06;21.00;93.54
66096;SHT31;53861;53.422;14.530;2022-08-19T04:52:33;21.01;94.82
66096;SHT31;53861;53.422;14.530;2022-08-19T04:55:00;20.83;93.33
66096;SHT31;53861;53.422;14.530;2022-08-19T04:57:28;20.97;93.64
66096;SHT31;53861;53.422;14.530;2022-08-19T05:00:10;21.10;92.94
66096;SHT31;53861;53.422;14.530;2022-08-19T05:02:39;21.06;94.12
66096;SHT31;53861;53.422;14.530;2022-08-19T05:05:07;21.07;93.65
66096;SHT31;53861;53.422;14.530;2022-08-19T05:07:35;21.08;93.13
66096;SHT31;53861;53.422;14.530;2022-08-19T05:10:03;21.20;92.34
66096;SHT31;53861;53.422;14.530;2022-08-19T05:12:31;21.24;92.48
66096;SHT31;53861;53.422;14.530;2022-08-19T05:14:59;21.31;92.25
66096;SHT31;53861;53.422;14.530;2022-08-19T05:17:27;21.32;91.87
66096;SHT31;53861;53.422;14.530;2022-08-19T05:19:56;21.41;91.17
66096;SHT31;53861;53.422;14.530;2022-08-19T05:22:41;21.45;91.24
66096;SHT31;53861;53.422;14.530;2022-08-19T05:25:11;21.48;90.93
66096;SHT31;53861;53.422;14.530;2022-08-19T05:27:40;21.57;90.26
66096;SHT31;53861;53.422;14.530;2022-08-19T05:30:09;21.47;92.06
66096;SHT31;53861;53.422;14.530;2022-08-19T05:32:47;21.41;92.23
66096;SHT31;53861;53.422;14.530;2022-08-19T05:35:16;21.51;92.73
66096;SHT31;53861;53.422;14.530;2022-08-19T05:37:44;21.54;92.00
66096;SHT31;53861;53.422;14.530;2022-08-19T05:40:12;21.59;90.93
66096;SHT31;53861;53.422;14.530;2022-08-19T05:42:39;21.65;91.04
66096;SHT31;53861;53.422;14.530;2022-08-19T05:45:07;21.62;90.45
66096;SHT31;53861;53.422;14.530;2022-08-19T05:47:35;21.69;90.65
66096;SHT31;53861;53.422;14.530;2022-08-19T05:50:03;21.61;91.36
66096;SHT31;53861;53.422;14.530;2022-08-19T05:52:32;21.55;92.28
66096;SHT31;53861;53.422;14.530;2022-08-19T05:55:04;21.61;91.42
66096;SHT31;53861;53.422;14.530;2022-08-19T05:57:34;21.66;90.84
66096;SHT31;53861;53.422;14.530;2022-08-19T06:00:03;21.62;91.11
66096;SHT31;53861;53.422;14.530;2022-08-19T06:02:34;21.72;90.68
66096;SHT31;53861;53.422;14.530;2022-08-19T06:05:06;21.78;90.23
66096;SHT31;53861;53.422;14.530;2022-08-19T06:07:36;21.85;90.48
66096;SHT31;53861;53.422;14.530;2022-08-19T06:10:05;21.86;90.13
66096;SHT31;53861;53.422;14.530;2022-08-19T06:12:33;21.83;90.39
66096;SHT31;53861;53.422;14.530;2022-08-19T06:15:03;21.92;89.86
66096;SHT31;53861;53.422;14.530;2022-08-19T06:17:31;21.89;90.31
66096;SHT31;53861;53.422;14.530;2022-08-19T06:20:14;21.98;89.98
66096;SHT31;53861;53.422;14.530;2022-08-19T06:22:45;21.99;89.62
66096;SHT31;53861;53.422;14.530;2022-08-19T06:25:14;22.05;89.24
66096;SHT31;53861;53.422;14.530;2022-08-19T06:27:43;22.06;89.29
66096;SHT31;53861;53.422;14.530;2022-08-19T06:30:22;21.98;90.01
66096;SHT31;53861;53.422;14.530;2022-08-19T06:32:54;21.98;89.86
66096;SHT31;53861;53.422;14.530;2022-08-19T06:35:24;21.93;89.84
66096;SHT31;53861;53.422;14.530;2022-08-19T06:37:53;21.96;89.99
66096;SHT31;53861;53.422;14.530;2022-08-19T06:40:20;21.98;89.78
66096;SHT31;53861;53.422;14.530;2022-08-19T06:42:48;21.86;90.43
66096;SHT31;53861;53.422;14.530;2022-08-19T06:45:15;21.85;90.65
66096;SHT31;53861;53.422;14.530;2022-08-19T06:47:44;21.85;90.57
66096;SHT31;53861;53.422;14.530;2022-08-19T06:50:11;21.82;91.82
66096;SHT31;53861;53.422;14.530;2022-08-19T06:52:39;21.77;92.30
66096;SHT31;53861;53.422;14.530;2022-08-19T06:55:08;21.68;92.65
66096;SHT31;53861;53.422;14.530;2022-08-19T06:57:35;21.71;92.49
66096;SHT31;53861;53.422;14.530;2022-08-19T07:00:04;21.82;91.42
66096;SHT31;53861;53.422;14.530;2022-08-19T07:02:32;21.91;91.31
66096;SHT31;53861;53.422;14.530;2022-08-19T07:05:06;22.08;90.79
66096;SHT31;53861;53.422;14.530;2022-08-19T07:07:34;22.13;91.21
66096;SHT31;53861;53.422;14.530;2022-08-19T07:10:02;22.19;91.25
66096;SHT31;53861;53.422;14.530;2022-08-19T07:12:34;22.16;91.26
66096;SHT31;53861;53.422;14.530;2022-08-19T07:15:02;22.13;92.08
66096;SHT31;53861;53.422;14.530;2022-08-19T07:17:30;22.17;90.86
66096;SHT31;53861;53.422;14.530;2022-08-19T07:19:58;22.24;91.23
66096;SHT31;53861;53.422;14.530;2022-08-19T07:22:25;22.20;90.96
66096;SHT31;53861;53.422;14.530;2022-08-19T07:24:53;22.23;91.22
66096;SHT31;53861;53.422;14.530;2022-08-19T07:27:20;22.20;92.10
66096;SHT31;53861;53.422;14.530;2022-08-19T07:29:49;22.28;91.96
66096;SHT31;53861;53.422;14.530;2022-08-19T07:32:17;22.28;91.69
66096;SHT31;53861;53.422;14.530;2022-08-19T07:34:44;22.32;91.71
66096;SHT31;53861;53.422;14.530;2022-08-19T07:37:11;22.22;92.07
66096;SHT31;53861;53.422;14.530;2022-08-19T07:39:39;22.24;92.50
66096;SHT31;53861;53.422;14.530;2022-08-19T07:42:08;22.29;92.16
66096;SHT31;53861;53.422;14.530;2022-08-19T07:44:37;22.30;91.80
66096;SHT31;53861;53.422;14.530;2022-08-19T07:47:06;22.29;90.87
66096;SHT31;53861;53.422;14.530;2022-08-19T07:49:33;22.28;91.74
66096;SHT31;53861;53.422;14.530;2022-08-19T07:52:03;22.23;92.09
66096;SHT31;53861;53.422;14.530;2022-08-19T07:54:33;22.19;92.21
66096;SHT31;53861;53.422;14.530;2022-08-19T07:57:01;22.19;91.81
66096;SHT31;53861;53.422;14.530;2022-08-19T07:59:29;22.29;91.81
66096;SHT31;53861;53.422;14.530;2022-08-19T08:01:57;22.28;92.20
66096;SHT31;53861;53.422;14.530;2022-08-19T08:04:28;22.35;92.07
66096;SHT31;53861;53.422;14.530;2022-08-19T08:07:13;22.44;91.58
66096;SHT31;53861;53.422;14.530;2022-08-19T08:09:57;22.32;91.79
66096;SHT31;53861;53.422;14.530;2022-08-19T08:12:27;22.32;91.84
66096;SHT31;53861;53.422;14.530;2022-08-19T08:14:59;22.37;91.14
66096;SHT31;53861;53.422;14.530;2022-08-19T08:17:28;22.35;90.79
66096;SHT31;53861;53.422;14.530;2022-08-19T08:19:57;22.37;90.99
66096;SHT31;53861;53.422;14.530;2022-08-19T08:22:25;22.40;91.07
66096;SHT31;53861;53.422;14.530;2022-08-19T08:25:12;22.46;91.73
66096;SHT31;53861;53.422;14.530;2022-08-19T08:27:41;22.49;92.62
66096;SHT31;53861;53.422;14.530;2022-08-19T08:30:12;22.74;89.77
66096;SHT31;53861;53.422;14.530;2022-08-19T08:32:41;22.91;89.08
66096;SHT31;53861;53.422;14.530;2022-08-19T08:35:12;23.08;89.06
66096;SHT31;53861;53.422;14.530;2022-08-19T08:37:40;23.10;90.37
66096;SHT31;53861;53.422;14.530;2022-08-19T08:40:16;23.04;91.18
66096;SHT31;53861;53.422;14.530;2022-08-19T08:42:50;22.90;90.19
66096;SHT31;53861;53.422;14.530;2022-08-19T08:45:20;22.94;89.59
66096;SHT31;53861;53.422;14.530;2022-08-19T08:47:50;22.80;90.35
66096;SHT31;53861;53.422;14.530;2022-08-19T08:50:24;22.68;90.35
66096;SHT31;53861;53.422;14.530;2022-08-19T08:52:54;22.54;91.41
66096;SHT31;53861;53.422;14.530;2022-08-19T08:55:27;22.52;91.50
66096;SHT31;53861;53.422;14.530;2022-08-19T08:58:00;22.54;90.91
66096;SHT31;53861;53.422;14.530;2022-08-19T09:00:28;22.47;91.82
66096;SHT31;53861;53.422;14.530;2022-08-19T09:02:57;22.60;90.72
66096;SHT31;53861;53.422;14.530;2022-08-19T09:05:37;22.61;91.28
66096;SHT31;53861;53.422;14.530;2022-08-19T09:08:22;22.57;91.82
66096;SHT31;53861;53.422;14.530;2022-08-19T09:10:55;22.57;91.96
66096;SHT31;53861;53.422;14.530;2022-08-19T09:13:31;22.73;91.67
66096;SHT31;53861;53.422;14.530;2022-08-19T09:16:04;22.74;91.56
66096;SHT31;53861;53.422;14.530;2022-08-19T09:18:42;22.86;91.19
66096;SHT31;53861;53.422;14.530;2022-08-19T09:21:12;22.81;91.93
66096;SHT31;53861;53.422;14.530;2022-08-19T09:23:39;22.90;90.74
66096;SHT31;53861;53.422;14.530;2022-08-19T09:26:08;23.05;90.69
66096;SHT31;53861;53.422;14.530;2022-08-19T09:28:35;23.29;89.95
66096;SHT31;53861;53.422;14.530;2022-08-19T09:31:04;23.39;89.25
66096;SHT31;53861;53.422;14.530;2022-08-19T09:33:38;23.42;89.20
66096;SHT31;53861;53.422;14.530;2022-08-19T09:36:13;23.28;89.77
66096;SHT31;53861;53.422;14.530;2022-08-19T09:38:41;23.48;89.52
66096;SHT31;53861;53.422;14.530;2022-08-19T09:41:12;23.58;88.93
66096;SHT31;53861;53.422;14.530;2022-08-19T09:43:41;23.72;88.31
66096;SHT31;53861;53.422;14.530;2022-08-19T09:46:09;23.85;90.27
66096;SHT31;53861;53.422;14.530;2022-08-19T09:48:37;23.99;88.32
66096;SHT31;53861;53.422;14.530;2022-08-19T09:51:08;24.24;88.51
66096;SHT31;53861;53.422;14.530;2022-08-19T09:53:38;24.23;87.49
66096;SHT31;53861;53.422;14.530;2022-08-19T09:56:05;24.29;88.33
66096;SHT31;53861;53.422;14.530;2022-08-19T09:58:33;24.27;87.06
66096;SHT31;53861;53.422;14.530;2022-08-19T10:01:15;24.31;88.49
66096;SHT31;53861;53.422;14.530;2022-08-19T10:03:43;24.33;90.07
66096;SHT31;53861;53.422;14.530;2022-08-19T10:06:10;24.36;89.21
66096;SHT31;53861;53.422;14.530;2022-08-19T10:08:38;24.20;90.66
66096;SHT31;53861;53.422;14.530;2022-08-19T10:11:05;24.13;89.35
66096;SHT31;53861;53.422;14.530;2022-08-19T10:13:34;23.88;89.53
66096;SHT31;53861;53.422;14.530;2022-08-19T10:16:04;23.72;89.31
66096;SHT31;53861;53.422;14.530;2022-08-19T10:18:33;23.80;89.38
66096;SHT31;53861;53.422;14.530;2022-08-19T10:21:06;23.68;92.47
66096;SHT31;53861;53.422;14.530;2022-08-19T10:23:39;23.62;93.12
66096;SHT31;53861;53.422;14.530;2022-08-19T10:26:11;23.51;93.43
66096;SHT31;53861;53.422;14.530;2022-08-19T10:28:38;23.55;91.46
66096;SHT31;53861;53.422;14.530;2022-08-19T10:31:07;23.65;90.24
66096;SHT31;53861;53.422;14.530;2022-08-19T10:33:35;23.76;91.41
66096;SHT31;53861;53.422;14.530;2022-08-19T10:36:06;23.83;92.01
66096;SHT31;53861;53.422;14.530;2022-08-19T10:38:34;23.90;90.42
66096;SHT31;53861;53.422;14.530;2022-08-19T10:41:10;24.09;88.66
66096;SHT31;53861;53.422;14.530;2022-08-19T10:43:37;24.16;88.73
66096;SHT31;53861;53.422;14.530;2022-08-19T10:46:06;24.24;89.03
66096;SHT31;53861;53.422;14.530;2022-08-19T10:48:33;24.14;89.53
66096;SHT31;53861;53.422;14.530;2022-08-19T10:51:04;24.20;89.08
66096;SHT31;53861;53.422;14.530;2022-08-19T10:53:48;24.23;88.62
66096;SHT31;53861;53.422;14.530;2022-08-19T10:56:17;24.17;89.06
66096;SHT31;53861;53.422;14.530;2022-08-19T10:59:02;24.05;89.97
66096;SHT31;53861;53.422;14.530;2022-08-19T11:01:31;24.05;90.08
66096;SHT31;53861;53.422;14.530;2022-08-19T11:03:59;24.12;89.57
66096;SHT31;53861;53.422;14.530;2022-08-19T11:06:27;24.06;89.06
66096;SHT31;53861;53.422;14.530;2022-08-19T11:08:55;24.16;88.76
66096;SHT31;53861;53.422;14.530;2022-08-19T11:11:24;24.21;90.22
66096;SHT31;53861;53.422;14.530;2022-08-19T11:13:51;24.23;90.53
66096;SHT31;53861;53.422;14.530;2022-08-19T11:16:20;24.33;89.97
66096;SHT31;53861;53.422;14.530;2022-08-19T11:18:50;24.39;88.91
66096;SHT31;53861;53.422;14.530;2022-08-19T11:21:21;24.74;87.40
66096;SHT31;53861;53.422;14.530;2022-08-19T11:23:51;24.98;87.94
66096;SHT31;53861;53.422;14.530;2022-08-19T11:26:19;25.23;88.12
66096;SHT31;53861;53.422;14.530;2022-08-19T11:28:48;25.38;86.06
66096;SHT31;53861;53.422;14.530;2022-08-19T11:31:19;25.65;86.55
66096;SHT31;53861;53.422;14.530;2022-08-19T11:33:50;25.82;86.24
66096;SHT31;53861;53.422;14.530;2022-08-19T11:36:19;26.10;85.23
66096;SHT31;53861;53.422;14.530;2022-08-19T11:38:47;26.24;85.64
66096;SHT31;53861;53.422;14.530;2022-08-19T11:41:16;26.47;86.30
66096;SHT31;53861;53.422;14.530;2022-08-19T11:43:44;26.75;83.03
66096;SHT31;53861;53.422;14.530;2022-08-19T11:46:14;27.05;83.93
66096;SHT31;53861;53.422;14.530;2022-08-19T11:48:42;27.36;79.47
66096;SHT31;53861;53.422;14.530;2022-08-19T11:51:11;27.19;81.15
66096;SHT31;53861;53.422;14.530;2022-08-19T11:53:39;27.20;80.18
66096;SHT31;53861;53.422;14.530;2022-08-19T11:56:08;27.46;81.13
66096;SHT31;53861;53.422;14.530;2022-08-19T11:58:36;27.35;81.47
66096;SHT31;53861;53.422;14.530;2022-08-19T12:01:06;27.50;82.34
66096;SHT31;53861;53.422;14.530;2022-08-19T12:03:35;27.88;81.26
66096;SHT31;53861;53.422;14.530;2022-08-19T12:06:04;27.90;77.11
66096;SHT31;53861;53.422;14.530;2022-08-19T12:08:31;28.14;78.85
66096;SHT31;53861;53.422;14.530;2022-08-19T12:10:58;28.38;77.20
66096;SHT31;53861;53.422;14.530;2022-08-19T12:13:27;28.51;72.33
66096;SHT31;53861;53.422;14.530;2022-08-19T12:15:54;28.52;73.41
66096;SHT31;53861;53.422;14.530;2022-08-19T12:18:22;28.51;76.09
66096;SHT31;53861;53.422;14.530;2022-08-19T12:20:53;28.28;74.52
66096;SHT31;53861;53.422;14.530;2022-08-19T12:23:21;28.24;74.46
66096;SHT31;53861;53.422;14.530;2022-08-19T12:25:49;28.29;74.33
66096;SHT31;53861;53.422;14.530;2022-08-19T12:28:18;28.17;77.60
66096;SHT31;53861;53.422;14.530;2022-08-19T12:30:46;28.53;79.47
66096;SHT31;53861;53.422;14.530;2022-08-19T12:33:16;29.03;76.04
66096;SHT31;53861;53.422;14.530;2022-08-19T12:35:46;29.34;73.99
66096;SHT31;53861;53.422;14.530;2022-08-19T12:38:15;29.20;74.87
66096;SHT31;53861;53.422;14.530;2022-08-19T12:40:45;29.14;72.21
66096;SHT31;53861;53.422;14.530;2022-08-19T12:43:14;28.72;76.82
66096;SHT31;53861;53.422;14.530;2022-08-19T12:45:42;28.80;74.45
66096;SHT31;53861;53.422;14.530;2022-08-19T12:48:11;28.55;76.23
66096;SHT31;53861;53.422;14.530;2022-08-19T12:50:39;28.31;75.81
66096;SHT31;53861;53.422;14.530;2022-08-19T12:53:06;27.90;77.23
66096;SHT31;53861;53.422;14.530;2022-08-19T12:55:35;27.96;77.32
66096;SHT31;53861;53.422;14.530;2022-08-19T12:58:02;27.91;76.59
66096;SHT31;53861;53.422;14.530;2022-08-19T13:00:29;27.81;76.26
66096;SHT31;53861;53.422;14.530;2022-08-19T13:02:59;27.87;77.08
66096;SHT31;53861;53.422;14.530;2022-08-19T13:05:28;27.93;76.42
66096;SHT31;53861;53.422;14.530;2022-08-19T13:07:58;27.88;77.42
66096;SHT31;53861;53.422;14.530;2022-08-19T13:10:30;27.90;77.49
66096;SHT31;53861;53.422;14.530;2022-08-19T13:13:03;27.93;76.99
66096;SHT31;53861;53.422;14.530;2022-08-19T13:15:33;27.93;77.59
66096;SHT31;53861;53.422;14.530;2022-08-19T13:18:01;27.90;77.90
66096;SHT31;53861;53.422;14.530;2022-08-19T13:20:29;27.63;77.76
66096;SHT31;53861;53.422;14.530;2022-08-19T13:22:56;27.54;77.37
66096;SHT31;53861;53.422;14.530;2022-08-19T13:25:24;27.54;76.44
66096;SHT31;53861;53.422;14.530;2022-08-19T13:27:53;27.43;78.19
66096;SHT31;53861;53.422;14.530;2022-08-19T13:30:22;27.50;79.79
66096;SHT31;53861;53.422;14.530;2022-08-19T13:33:08;27.30;78.22
66096;SHT31;53861;53.422;14.530;2022-08-19T13:35:42;27.51;79.79
66096;SHT31;53861;53.422;14.530;2022-08-19T13:38:11;27.66;78.23
66096;SHT31;53861;53.422;14.530;2022-08-19T13:40:38;28.04;76.01
66096;SHT31;53861;53.422;14.530;2022-08-19T13:43:06;28.20;76.02
66096;SHT31;53861;53.422;14.530;2022-08-19T13:45:35;28.29;73.10
66096;SHT31;53861;53.422;14.530;2022-08-19T13:48:04;28.42;76.32
66096;SHT31;53861;53.422;14.530;2022-08-19T13:50:37;28.61;74.92
66096;SHT31;53861;53.422;14.530;2022-08-19T13:53:06;28.76;74.26
66096;SHT31;53861;53.422;14.530;2022-08-19T13:55:33;28.95;76.79
66096;SHT31;53861;53.422;14.530;2022-08-19T13:58:04;29.10;74.54
66096;SHT31;53861;53.422;14.530;2022-08-19T14:00:39;29.29;72.82
66096;SHT31;53861;53.422;14.530;2022-08-19T14:03:09;29.33;73.02
66096;SHT31;53861;53.422;14.530;2022-08-19T14:05:37;29.14;72.85
66096;SHT31;53861;53.422;14.530;2022-08-19T14:08:05;28.82;73.34
66096;SHT31;53861;53.422;14.530;2022-08-19T14:10:32;28.48;74.94
66096;SHT31;53861;53.422;14.530;2022-08-19T14:13:02;28.10;74.42
66096;SHT31;53861;53.422;14.530;2022-08-19T14:15:30;28.27;74.46
66096;SHT31;53861;53.422;14.530;2022-08-19T14:17:58;28.38;74.50
66096;SHT31;53861;53.422;14.530;2022-08-19T14:20:33;28.65;73.60
66096;SHT31;53861;53.422;14.530;2022-08-19T14:23:00;28.66;73.14
66096;SHT31;53861;53.422;14.530;2022-08-19T14:25:31;28.38;74.82
66096;SHT31;53861;53.422;14.530;2022-08-19T14:27:59;28.47;73.06
66096;SHT31;53861;53.422;14.530;2022-08-19T14:30:28;28.61;72.74
66096;SHT31;53861;53.422;14.530;2022-08-19T14:32:57;28.49;72.75
66096;SHT31;53861;53.422;14.530;2022-08-19T14:35:26;28.55;72.68
66096;SHT31;53861;53.422;14.530;2022-08-19T14:37:54;28.65;73.06
66096;SHT31;53861;53.422;14.530;2022-08-19T14:40:26;28.61;70.90
66096;SHT31;53861;53.422;14.530;2022-08-19T14:42:56;28.63;73.25
66096;SHT31;53861;53.422;14.530;2022-08-19T14:45:26;28.82;70.35
66096;SHT31;53861;53.422;14.530;2022-08-19T14:47:54;28.66;72.20
66096;SHT31;53861;53.422;14.530;2022-08-19T14:50:21;28.18;72.21
66096;SHT31;53861;53.422;14.530;2022-08-19T14:52:56;27.70;73.97
66096;SHT31;53861;53.422;14.530;2022-08-19T14:55:25;27.50;75.37
66096;SHT31;53861;53.422;14.530;2022-08-19T14:57:52;27.56;74.83
66096;SHT31;53861;53.422;14.530;2022-08-19T15:00:20;27.57;73.08
66096;SHT31;53861;53.422;14.530;2022-08-19T15:02:48;27.67;74.15
66096;SHT31;53861;53.422;14.530;2022-08-19T15:05:16;27.77;74.10
66096;SHT31;53861;53.422;14.530;2022-08-19T15:07:43;27.90;73.63
66096;SHT31;53861;53.422;14.530;2022-08-19T15:10:13;28.15;73.56
66096;SHT31;53861;53.422;14.530;2022-08-19T15:12:41;28.44;71.94
66096;SHT31;53861;53.422;14.530;2022-08-19T15:15:11;28.51;73.30
66096;SHT31;53861;53.422;14.530;2022-08-19T15:17:40;28.49;70.68
66096;SHT31;53861;53.422;14.530;2022-08-19T15:20:09;28.29;71.24
66096;SHT31;53861;53.422;14.530;2022-08-19T15:22:36;27.84;72.28
66096;SHT31;53861;53.422;14.530;2022-08-19T15:25:05;27.68;74.00
66096;SHT31;53861;53.422;14.530;2022-08-19T15:27:34;27.33;75.73
66096;SHT31;53861;53.422;14.530;2022-08-19T15:30:03;27.12;74.86